Home > Products > Valid Products > MTR

000
SAUS45 KRIW 251657
MTRP60
METAR KP60 251656Z AUTO 00000KT 11/M02 A3020 RMK AO1 SLP200
T01061017 $





000
SAUS45 KRIW 251558
MTRP60
METAR KP60 251556Z AUTO 00000KT 05/M01 A3022 RMK AO1 SLP220
T00501006 $





000
SAUS45 KRIW 251457
MTRP60
METAR KP60 251456Z AUTO 00000KT M01/M03 A3023 RMK AO1 SLP239
T10111033 55001 $





000
SAUS45 KRIW 251357
MTRP60
METAR KP60 251356Z AUTO 30003KT M03/M05 A3023 RMK AO1 SLP240
T10331050 $





000
SAUS45 KRIW 251257
MTRP60
METAR KP60 251256Z AUTO 00000KT M03/M06 A3024 RMK AO1 SLP229
T10331056 $





000
SAUS45 KRIW 251157
MTRP60
METAR KP60 251156Z AUTO 32003KT M03/M05 A3024 RMK AO1 SLP216
T10331050 11022 21033 56010 $





000
SAUS45 KRIW 251157
MTRP60
METAR KP60 251156Z AUTO 32003KT M03/M05 A3024 RMK AO1 SLP216
T10331050 11022 21033 56010 $





000
SAUS45 KRIW 251057
MTRP60
METAR KP60 251056Z AUTO 31003KT M03/M05 A3024 RMK AO1 SLP214
T10331050 $





000
SAUS45 KRIW 251057
MTRP60
METAR KP60 251056Z AUTO 31003KT M03/M05 A3024 RMK AO1 SLP214
T10331050 $





000
SAUS45 KRIW 250957
MTRP60
METAR KP60 250956Z AUTO 31003KT M03/M05 A3027 RMK AO1 SLP223
T10281050 $





000
SAUS45 KRIW 250857
MTRP60
METAR KP60 250856Z AUTO 31003KT M03/M05 A3028 RMK AO1 SLP226
T10281050 58002 $





000
SAUS45 KRIW 250757
MTRP60
METAR KP60 250756Z AUTO 31003KT M03/M05 A3028 RMK AO1 SLP232
T10281050 $





000
SAUS45 KRIW 250657
MTRP60
METAR KP60 250656Z AUTO 32003KT M02/M04 A3028 RMK AO1 SLP232
T10221044 401221022 $





000
SAUS45 KRIW 250557
MTRP60
METAR KP60 250556Z AUTO 00000KT M02/M04 A3028 RMK AO1 SLP235
T10221044 10106 21022 50002 $





000
SAUS45 KRIW 250457
MTRP60
METAR KP60 250456Z AUTO 31004KT M02/M05 A3029 RMK AO1 SLP237
T10171050 $





000
SAUS45 KRIW 250357
MTRP60
METAR KP60 250356Z AUTO 30003KT M01/M04 A3028 RMK AO1 SLP238
T10111044 $





000
SAUS45 KRIW 250357
MTRP60
METAR KP60 250356Z AUTO 30003KT M01/M04 A3028 RMK AO1 SLP238
T10111044 $





000
SAUS45 KRIW 250257
MTRP60
METAR KP60 250256Z AUTO 33003KT 01/M04 A3028 RMK AO1 SLP233
T00061044 53007





000
SAUS45 KRIW 250157
MTRP60
METAR KP60 250156Z AUTO 30003KT 02/M04 A3027 RMK AO1 SLP226
T00221039





000
SAUS45 KRIW 250057
MTRP60
METAR KP60 250056Z AUTO 29003KT 07/M04 A3026 RMK AO1 SLP209
T00671044





000
SAUS45 KRIW 242357
MTRP60
METAR KP60 242356Z AUTO VRB03KT 11/M07 A3025 RMK AO1 SLP193
T01061067 10122 20083 53004





000
SAUS45 KRIW 242257
MTRP60
METAR KP60 242256Z AUTO VRB05G17KT 12/M05 A3023 RMK AO1 SLP183
T01171050





000
SAUS45 KRIW 242157
MTRP60
METAR KP60 242156Z AUTO VRB05G19KT 11/M03 A3023 RMK AO1 SLP183
T01111033





000
SAUS45 KRIW 242057
MTRP60
METAR KP60 242056Z AUTO VRB06KT 11/M03 A3023 RMK AO1 SLP187
T01111033 55005





000
SAUS45 KRIW 241957
MTRP60
METAR KP60 241956Z AUTO 11/M02 A3023 RMK AO1 SLP193 T01061022





000
SAUS45 KRIW 241957
MTRP60
METAR KP60 241956Z AUTO 11/M02 A3023 RMK AO1 SLP193 T01061022





000
SAUS45 KRIW 241857
MTRP60
METAR KP60 241856Z AUTO VRB03KT 09/M01 A3025 RMK AO1 SLP203
T00941011





000
SAUS45 KRIW 241757
MTRP60
METAR KP60 241756Z AUTO VRB03KT 08/M01 A3025 RMK AO1 SLP204
T00831011 10083 20056 51004





000
SAUS45 KRIW 241658
MTRP60
METAR KP60 241656Z AUTO VRB03KT 08/M01 A3025 RMK AO1 SLP204
T00781006





000
SAUS45 KRIW 241557
MTRP60
METAR KP60 241556Z AUTO 00000KT 07/M01 A3025 RMK AO1 SLP204
T00671006





000
SAUS45 KRIW 241458
MTRP60
METAR KP60 241456Z AUTO 06/M01 A3024 RMK AO1 SLP202 T00611006 53008





000
SAUS45 KRIW 241357
MTRP60
METAR KP60 241356Z AUTO VRB03KT 06/01 A3022 RMK AO1 SLP200 T00560006





000
SAUS45 KRIW 241257
MTRP60
METAR KP60 241256Z AUTO VRB04KT 06/00 A3022 RMK AO1 SLP195 T00560000





000
SAUS45 KRIW 241157
MTRP60
METAR KP60 241156Z AUTO VRB05KT 06/M01 A3021 RMK AO1 SLP188
T00611006 10061 20033 53004





000
SAUS45 KRIW 241057
MTRP60
METAR KP60 241056Z AUTO 27006KT 06/M01 A3020 RMK AO1 SLP182
T00611011





000
SAUS45 KRIW 241057
MTRP60
METAR KP60 241056Z AUTO 27006KT 06/M01 A3020 RMK AO1 SLP182
T00611011





000
SAUS45 KRIW 240957
MTRP60
METAR KP60 240956Z AUTO VRB04KT 06/M01 A3019 RMK AO1 SLP179
T00611011





000
SAUS45 KRIW 240957
MTRP60
METAR KP60 240956Z AUTO VRB04KT 06/M01 A3019 RMK AO1 SLP179
T00611011





000
SAUS45 KRIW 240857
MTRP60
METAR KP60 240856Z AUTO VRB03KT 05/M02 A3019 RMK AO1 SLP179
T00501017 56001





000
SAUS45 KRIW 240757
MTRP60
METAR KP60 240756Z AUTO 00000KT 04/M02 A3019 RMK AO1 SLP180
T00391017





000
SAUS45 KRIW 240657
MTRP60
METAR KP60 240656Z AUTO VRB04KT 04/M02 A3019 RMK AO1 SLP179
T00391017 401061039





000
SAUS45 KRIW 240557
MTRP60
METAR KP60 240556Z AUTO 26003KT 05/M02 A3019 RMK AO1 SLP180
T00501017 10067 20050 50005





000
SAUS45 KRIW 240458
MTRP60
METAR KP60 240456Z AUTO 00000KT 06/M02 A3019 RMK AO1 SLP184
T00561017





000
SAUS45 KRIW 240458
MTRP60
METAR KP60 240456Z AUTO 00000KT 06/M02 A3019 RMK AO1 SLP184
T00561017





000
SAUS45 KRIW 240358
MTRP60
METAR KP60 240356Z AUTO VRB03KT 06/M02 A3018 RMK AO1 SLP186
T00611022





000
SAUS45 KRIW 240358
MTRP60
METAR KP60 240356Z AUTO VRB03KT 06/M02 A3018 RMK AO1 SLP186
T00611022





000
SAUS45 KRIW 240257
MTRP60
METAR KP60 240256Z AUTO VRB04KT 06/M02 A3017 RMK AO1 SLP199
T00561022 53001





000
SAUS45 KRIW 240257
MTRP60
METAR KP60 240256Z AUTO VRB04KT 06/M02 A3017 RMK AO1 SLP199
T00561022 53001





000
SAUS45 KRIW 240158
MTRP60
METAR KP60 240156Z AUTO VRB03KT 06/M02 A3017 RMK AO1 SLP204
T00561022





000
SAUS45 KRIW 240158
MTRP60
METAR KP60 240156Z AUTO VRB03KT 06/M02 A3017 RMK AO1 SLP204
T00561022





000
SAUS45 KRIW 240057
MTRP60
METAR KP60 240056Z AUTO 00000KT 06/M03 A3017 RMK AO1 SLP198
T00611028





000
SAUS45 KRIW 232357
MTRP60
METAR KP60 232356Z AUTO 00000KT 07/M03 A3017 RMK AO1 SLP198
T00671033 10106 20067 51003





000
SAUS45 KRIW 232257
MTRP60
METAR KP60 232256Z AUTO VRB05KT 08/M03 A3016 RMK AO1 SLP191
T00781033





000
SAUS45 KRIW 232158
MTRP60
METAR KP60 232156Z AUTO VRB04KT 08/M04 A3017 RMK AO1 SLP199
T00781039





000
SAUS45 KRIW 232057
MTRP60
METAR KP60 232056Z AUTO VRB05KT 09/M04 A3016 RMK AO1 SLP194
T00891044 58006





000
SAUS45 KRIW 231957
MTRP60
METAR KP60 231956Z AUTO 23008KT 170V350 11/M04 A3018 RMK AO1 SLP194
T01061039





000
SAUS45 KRIW 231957
MTRP60
METAR KP60 231956Z AUTO 23008KT 170V350 11/M04 A3018 RMK AO1 SLP194
T01061039





000
SAUS45 KRIW 231858
MTRP60
METAR KP60 231856Z AUTO 24012G20KT 190V280 10/M04 A3019 RMK AO1
SLP201 T01001044





000
SAUS45 KRIW 231858
MTRP60
METAR KP60 231856Z AUTO 24012G20KT 190V280 10/M04 A3019 RMK AO1
SLP201 T01001044





000
SAUS45 KRIW 231757
MTRP60
METAR KP60 231756Z AUTO VRB06KT 09/M04 A3018 RMK AO1 SLP199
T00941044 10100 21022 58004





000
SAUS45 KRIW 231757
MTRP60
METAR KP60 231756Z AUTO VRB06KT 09/M04 A3018 RMK AO1 SLP199
T00941044 10100 21022 58004





000
SAUS45 KRIW 231657
MTRP60
METAR KP60 231656Z AUTO VRB05KT 07/M06 A3019 RMK AO1 SLP209
T00721056





000
SAUS45 KRIW 231657
MTRP60
METAR KP60 231656Z AUTO VRB05KT 07/M06 A3019 RMK AO1 SLP209
T00721056





000
SAUS45 KRIW 231557
MTRP60
METAR KP60 231556Z AUTO 00000KT 04/M02 A3019 RMK AO1 SLP219
T00441022





000
SAUS45 KRIW 231457
MTRP60
METAR KP60 231456Z AUTO 00000KT 00/M03 A3019 RMK AO1 SLP232
T00001028 55003





000
SAUS45 KRIW 231457
MTRP60
METAR KP60 231456Z AUTO 00000KT 00/M03 A3019 RMK AO1 SLP232
T00001028 55003





000
SAUS45 KRIW 231357
MTRP60
METAR KP60 231356Z AUTO 00000KT M02/M04 A3018 RMK AO1 SLP235
T10221039





000
SAUS45 KRIW 231257
MTRP60
METAR KP60 231256Z AUTO 00000KT M01/M03 A3019 RMK AO1 SLP228
T10111028





000
SAUS45 KRIW 231157
MTRP60
METAR KP60 231156Z AUTO 00000KT M01/M03 A3021 RMK AO1 SLP222
T10111028 11011 21039 56002





000
SAUS45 KRIW 231057
MTRP60
METAR KP60 231056Z AUTO VRB03KT M02/M03 A3021 RMK AO1 SLP222
T10171033





000
SAUS45 KRIW 230957
MTRP60
METAR KP60 230956Z AUTO 31003KT M02/M04 A3021 RMK AO1 SLP224
T10221039





000
SAUS45 KRIW 230957
MTRP60
METAR KP60 230956Z AUTO 31003KT M02/M04 A3021 RMK AO1 SLP224
T10221039





000
SAUS45 KRIW 230857
MTRP60
METAR KP60 230856Z AUTO 31003KT M03/M05 A3021 RMK AO1 SLP225
T10331050 56004





000
SAUS45 KRIW 230757
MTRP60
METAR KP60 230756Z AUTO 30003KT M03/M05 A3022 RMK AO1 SLP231
T10331050





000
SAUS45 KRIW 230657
MTRP60
METAR KP60 230656Z AUTO 31003KT M04/M05 A3022 RMK AO1 SLP234
T10391050 400561044





000
SAUS45 KRIW 230557
MTRP60
METAR KP60 230556Z AUTO 00000KT M03/M05 A3023 RMK AO1 SLP240
T10331050 10028 21039 58006





000
SAUS45 KRIW 230457
MTRP60
METAR KP60 230456Z AUTO 30003KT M03/M06 A3024 RMK AO1 SLP245
T10331056





000
SAUS45 KRIW 230457
MTRP60
METAR KP60 230456Z AUTO 30003KT M03/M06 A3024 RMK AO1 SLP245
T10331056





000
SAUS45 KRIW 230357
MTRP60
METAR KP60 230356Z AUTO 00000KT M03/M05 A3024 RMK AO1 SLP253
T10331050





000
SAUS45 KRIW 230357
MTRP60
METAR KP60 230356Z AUTO 00000KT M03/M05 A3024 RMK AO1 SLP253
T10331050





000
SAUS45 KRIW 230258
MTRP60
METAR KP60 230256Z AUTO 00000KT M03/M05 A3025 RMK AO1 SLP255
T10281050 51007





000
SAUS45 KRIW 230157
MTRP60
METAR KP60 230156Z AUTO 31003KT M02/M04 A3025 RMK AO1 SLP254
T10221044





000
SAUS45 KRIW 230157
MTRP60
METAR KP60 230156Z AUTO 31003KT M02/M04 A3025 RMK AO1 SLP254
T10221044





000
SAUS45 KRIW 230058
MTRP60
METAR KP60 230056Z AUTO 00000KT 00/M04 A3024 RMK AO1 SLP248
T00001039





000
SAUS45 KRIW 230058
MTRP60
METAR KP60 230056Z AUTO 00000KT 00/M04 A3024 RMK AO1 SLP248
T00001039





000
SAUS45 KRIW 222357
MTRP60
METAR KP60 222356Z AUTO VRB03KT 03/M04 A3022 RMK AO1 SLP235
T00281039 10056 20022 51003





000
SAUS45 KRIW 222357
MTRP60
METAR KP60 222356Z AUTO VRB03KT 03/M04 A3022 RMK AO1 SLP235
T00281039 10056 20022 51003





000
SAUS45 KRIW 222257
MTRP60
METAR KP60 222256Z AUTO VRB03KT 03/M04 A3022 RMK AO1 SLP231
T00331039





000
SAUS45 KRIW 222257
MTRP60
METAR KP60 222256Z AUTO VRB03KT 03/M04 A3022 RMK AO1 SLP231
T00331039





000
SAUS45 KRIW 222157
MTRP60
METAR KP60 222156Z AUTO VRB05KT 04/M04 A3022 RMK AO1 SLP231
T00441039





000
SAUS45 KRIW 222058
MTRP60
METAR KP60 222056Z AUTO 26007KT 190V300 05/M05 A3021 RMK AO1 SLP228
T00501050 55001





000
SAUS45 KRIW 221957
MTRP60
METAR KP60 221956Z AUTO VRB05KT 04/M04 A3021 RMK AO1 SLP227
T00441044





000
SAUS45 KRIW 221858
MTRP60
METAR KP60 221856Z AUTO 27007KT 03/M04 A3022 RMK AO1 SLP229
T00331039





000
SAUS45 KRIW 221757
MTRP60
METAR KP60 221756Z AUTO VRB04KT 02/M03 A3022 RMK AO1 SLP233
T00221028 10022 21028 51004





000
SAUS45 KRIW 221757
MTRP60
METAR KP60 221756Z AUTO VRB04KT 02/M03 A3022 RMK AO1 SLP233
T00221028 10022 21028 51004





    US Dept of Commerce
    National Oceanic and Atmospheric Administration
    National Weather Service
    1325 East West Highway
    Silver Spring, MD 20910
    Page Author: NWS Internet Services Team
Disclaimer
Information Quality
Credits
Glossary
Privacy Policy
Freedom of Information Act (FOIA)
About Us
Career Opportunities